sensor_id;sensor_type;location;lat;lon;timestamp;P1;durP1;ratioP1;P2;durP2;ratioP2
32872;SDS011;19224;52.462;16.898;2023-09-12T00:01:30;16.80;;;10.43;;
32872;SDS011;19224;52.462;16.898;2023-09-12T00:04:01;16.60;;;9.55;;
32872;SDS011;19224;52.462;16.898;2023-09-12T00:06:31;15.50;;;9.78;;
32872;SDS011;19224;52.462;16.898;2023-09-12T00:09:01;13.40;;;9.15;;
32872;SDS011;19224;52.462;16.898;2023-09-12T00:11:33;11.55;;;9.35;;
32872;SDS011;19224;52.462;16.898;2023-09-12T00:14:04;20.60;;;10.05;;
32872;SDS011;19224;52.462;16.898;2023-09-12T00:16:36;12.93;;;9.75;;
32872;SDS011;19224;52.462;16.898;2023-09-12T00:19:06;14.80;;;10.15;;
32872;SDS011;19224;52.462;16.898;2023-09-12T00:21:36;15.55;;;10.72;;
32872;SDS011;19224;52.462;16.898;2023-09-12T00:24:07;18.95;;;10.45;;
32872;SDS011;19224;52.462;16.898;2023-09-12T00:26:37;20.52;;;10.90;;
32872;SDS011;19224;52.462;16.898;2023-09-12T00:29:08;17.12;;;10.82;;
32872;SDS011;19224;52.462;16.898;2023-09-12T00:31:38;15.45;;;11.38;;
32872;SDS011;19224;52.462;16.898;2023-09-12T00:34:08;17.92;;;12.00;;
32872;SDS011;19224;52.462;16.898;2023-09-12T00:36:38;15.25;;;11.53;;
32872;SDS011;19224;52.462;16.898;2023-09-12T00:39:09;20.43;;;10.85;;
32872;SDS011;19224;52.462;16.898;2023-09-12T00:41:39;13.85;;;10.85;;
32872;SDS011;19224;52.462;16.898;2023-09-12T00:44:09;20.72;;;12.75;;
32872;SDS011;19224;52.462;16.898;2023-09-12T00:46:40;18.73;;;13.03;;
32872;SDS011;19224;52.462;16.898;2023-09-12T00:49:12;19.20;;;13.05;;
32872;SDS011;19224;52.462;16.898;2023-09-12T00:51:45;17.07;;;13.00;;
32872;SDS011;19224;52.462;16.898;2023-09-12T00:54:18;16.93;;;13.05;;
32872;SDS011;19224;52.462;16.898;2023-09-12T00:56:49;21.52;;;13.32;;
32872;SDS011;19224;52.462;16.898;2023-09-12T00:59:19;20.20;;;12.93;;
32872;SDS011;19224;52.462;16.898;2023-09-12T01:01:51;20.37;;;13.95;;
32872;SDS011;19224;52.462;16.898;2023-09-12T01:04:21;24.15;;;14.35;;
32872;SDS011;19224;52.462;16.898;2023-09-12T01:06:52;19.75;;;13.70;;
32872;SDS011;19224;52.462;16.898;2023-09-12T01:09:22;19.80;;;13.75;;
32872;SDS011;19224;52.462;16.898;2023-09-12T01:11:53;18.50;;;13.98;;
32872;SDS011;19224;52.462;16.898;2023-09-12T01:14:24;23.22;;;12.98;;
32872;SDS011;19224;52.462;16.898;2023-09-12T01:16:55;20.90;;;14.10;;
32872;SDS011;19224;52.462;16.898;2023-09-12T01:19:27;18.45;;;13.30;;
32872;SDS011;19224;52.462;16.898;2023-09-12T01:22:03;19.05;;;13.70;;
32872;SDS011;19224;52.462;16.898;2023-09-12T01:27:41;26.30;;;14.33;;
32872;SDS011;19224;52.462;16.898;2023-09-12T01:30:12;22.35;;;15.32;;
32872;SDS011;19224;52.462;16.898;2023-09-12T01:32:51;23.47;;;14.60;;
32872;SDS011;19224;52.462;16.898;2023-09-12T01:35:23;24.95;;;14.47;;
32872;SDS011;19224;52.462;16.898;2023-09-12T01:37:53;21.15;;;14.78;;
32872;SDS011;19224;52.462;16.898;2023-09-12T01:40:31;18.45;;;13.80;;
32872;SDS011;19224;52.462;16.898;2023-09-12T01:43:02;23.22;;;15.10;;
32872;SDS011;19224;52.462;16.898;2023-09-12T01:45:33;20.68;;;14.18;;
32872;SDS011;19224;52.462;16.898;2023-09-12T01:48:06;22.85;;;14.00;;
32872;SDS011;19224;52.462;16.898;2023-09-12T01:50:36;23.27;;;14.33;;
32872;SDS011;19224;52.462;16.898;2023-09-12T01:53:07;28.90;;;14.13;;
32872;SDS011;19224;52.462;16.898;2023-09-12T01:55:39;27.32;;;15.20;;
32872;SDS011;19224;52.462;16.898;2023-09-12T01:58:12;19.98;;;15.32;;
32872;SDS011;19224;52.462;16.898;2023-09-12T02:00:44;24.20;;;14.68;;
32872;SDS011;19224;52.462;16.898;2023-09-12T02:03:15;23.80;;;15.43;;
32872;SDS011;19224;52.462;16.898;2023-09-12T02:05:46;22.60;;;16.00;;
32872;SDS011;19224;52.462;16.898;2023-09-12T02:08:17;27.22;;;15.53;;
32872;SDS011;19224;52.462;16.898;2023-09-12T02:10:47;23.80;;;14.98;;
32872;SDS011;19224;52.462;16.898;2023-09-12T02:13:17;22.07;;;15.25;;
32872;SDS011;19224;52.462;16.898;2023-09-12T02:15:47;23.05;;;16.70;;
32872;SDS011;19224;52.462;16.898;2023-09-12T02:18:18;22.32;;;16.55;;
32872;SDS011;19224;52.462;16.898;2023-09-12T02:20:48;24.37;;;17.10;;
32872;SDS011;19224;52.462;16.898;2023-09-12T02:23:18;24.65;;;17.02;;
32872;SDS011;19224;52.462;16.898;2023-09-12T02:25:49;26.80;;;17.07;;
32872;SDS011;19224;52.462;16.898;2023-09-12T02:28:19;22.67;;;16.77;;
32872;SDS011;19224;52.462;16.898;2023-09-12T02:30:49;27.30;;;18.07;;
32872;SDS011;19224;52.462;16.898;2023-09-12T02:33:20;25.25;;;17.73;;
32872;SDS011;19224;52.462;16.898;2023-09-12T02:35:50;31.82;;;19.15;;
32872;SDS011;19224;52.462;16.898;2023-09-12T02:38:20;28.85;;;18.73;;
32872;SDS011;19224;52.462;16.898;2023-09-12T02:40:51;28.27;;;19.37;;
32872;SDS011;19224;52.462;16.898;2023-09-12T02:43:22;27.58;;;18.92;;
32872;SDS011;19224;52.462;16.898;2023-09-12T02:45:52;31.85;;;19.67;;
32872;SDS011;19224;52.462;16.898;2023-09-12T02:48:23;29.07;;;19.73;;
32872;SDS011;19224;52.462;16.898;2023-09-12T02:50:53;29.20;;;20.32;;
32872;SDS011;19224;52.462;16.898;2023-09-12T02:53:24;27.10;;;19.48;;
32872;SDS011;19224;52.462;16.898;2023-09-12T02:55:54;30.15;;;19.65;;
32872;SDS011;19224;52.462;16.898;2023-09-12T02:58:24;30.85;;;20.62;;
32872;SDS011;19224;52.462;16.898;2023-09-12T03:00:54;26.70;;;20.08;;
32872;SDS011;19224;52.462;16.898;2023-09-12T03:03:25;29.70;;;20.12;;
32872;SDS011;19224;52.462;16.898;2023-09-12T03:05:58;32.30;;;20.17;;
32872;SDS011;19224;52.462;16.898;2023-09-12T03:08:31;27.52;;;20.50;;
32872;SDS011;19224;52.462;16.898;2023-09-12T03:11:01;29.85;;;20.60;;
32872;SDS011;19224;52.462;16.898;2023-09-12T03:13:32;30.45;;;20.27;;
32872;SDS011;19224;52.462;16.898;2023-09-12T03:16:04;32.80;;;20.85;;
32872;SDS011;19224;52.462;16.898;2023-09-12T03:18:36;26.07;;;19.62;;
32872;SDS011;19224;52.462;16.898;2023-09-12T03:21:06;33.38;;;19.73;;
32872;SDS011;19224;52.462;16.898;2023-09-12T03:23:37;27.45;;;19.55;;
32872;SDS011;19224;52.462;16.898;2023-09-12T03:26:07;28.60;;;18.85;;
32872;SDS011;19224;52.462;16.898;2023-09-12T03:28:37;28.12;;;19.10;;
32872;SDS011;19224;52.462;16.898;2023-09-12T03:31:09;34.70;;;19.45;;
32872;SDS011;19224;52.462;16.898;2023-09-12T03:33:42;31.15;;;20.00;;
32872;SDS011;19224;52.462;16.898;2023-09-12T03:36:18;32.85;;;20.32;;
32872;SDS011;19224;52.462;16.898;2023-09-12T03:38:48;29.12;;;21.60;;
32872;SDS011;19224;52.462;16.898;2023-09-12T03:41:18;29.63;;;20.75;;
32872;SDS011;19224;52.462;16.898;2023-09-12T03:43:56;26.65;;;19.48;;
32872;SDS011;19224;52.462;16.898;2023-09-12T03:46:23;31.15;;;20.45;;
32872;SDS011;19224;52.462;16.898;2023-09-12T03:48:53;27.10;;;19.73;;
32872;SDS011;19224;52.462;16.898;2023-09-12T03:51:23;26.75;;;20.25;;
32872;SDS011;19224;52.462;16.898;2023-09-12T03:53:54;32.95;;;20.77;;
32872;SDS011;19224;52.462;16.898;2023-09-12T03:56:24;26.90;;;20.55;;
32872;SDS011;19224;52.462;16.898;2023-09-12T03:58:54;28.42;;;21.07;;
32872;SDS011;19224;52.462;16.898;2023-09-12T04:01:26;27.58;;;20.32;;
32872;SDS011;19224;52.462;16.898;2023-09-12T04:03:57;34.70;;;20.15;;
32872;SDS011;19224;52.462;16.898;2023-09-12T04:06:27;28.00;;;19.17;;
32872;SDS011;19224;52.462;16.898;2023-09-12T04:08:57;32.63;;;19.87;;
32872;SDS011;19224;52.462;16.898;2023-09-12T04:11:28;28.83;;;20.43;;
32872;SDS011;19224;52.462;16.898;2023-09-12T04:13:58;27.73;;;20.45;;
32872;SDS011;19224;52.462;16.898;2023-09-12T04:16:28;31.48;;;20.77;;
32872;SDS011;19224;52.462;16.898;2023-09-12T04:18:59;31.33;;;20.05;;
32872;SDS011;19224;52.462;16.898;2023-09-12T04:21:29;28.87;;;20.10;;
32872;SDS011;19224;52.462;16.898;2023-09-12T04:23:59;31.48;;;19.85;;
32872;SDS011;19224;52.462;16.898;2023-09-12T04:26:29;31.95;;;20.60;;
32872;SDS011;19224;52.462;16.898;2023-09-12T04:29:00;26.90;;;20.23;;
32872;SDS011;19224;52.462;16.898;2023-09-12T04:31:30;31.70;;;20.90;;
32872;SDS011;19224;52.462;16.898;2023-09-12T04:34:00;32.85;;;21.87;;
32872;SDS011;19224;52.462;16.898;2023-09-12T04:36:31;37.90;;;20.70;;
32872;SDS011;19224;52.462;16.898;2023-09-12T04:39:02;37.48;;;21.77;;
32872;SDS011;19224;52.462;16.898;2023-09-12T04:41:33;31.57;;;19.90;;
32872;SDS011;19224;52.462;16.898;2023-09-12T04:44:03;38.30;;;21.62;;
32872;SDS011;19224;52.462;16.898;2023-09-12T04:46:34;31.02;;;21.30;;
32872;SDS011;19224;52.462;16.898;2023-09-12T04:49:05;31.00;;;21.52;;
32872;SDS011;19224;52.462;16.898;2023-09-12T04:51:35;30.45;;;21.15;;
32872;SDS011;19224;52.462;16.898;2023-09-12T04:54:06;34.20;;;21.05;;
32872;SDS011;19224;52.462;16.898;2023-09-12T04:56:36;32.55;;;22.17;;
32872;SDS011;19224;52.462;16.898;2023-09-12T04:59:06;31.65;;;22.42;;
32872;SDS011;19224;52.462;16.898;2023-09-12T05:01:36;33.70;;;22.80;;
32872;SDS011;19224;52.462;16.898;2023-09-12T05:04:07;36.77;;;22.10;;
32872;SDS011;19224;52.462;16.898;2023-09-12T05:06:37;37.78;;;23.60;;
32872;SDS011;19224;52.462;16.898;2023-09-12T05:09:08;33.20;;;21.10;;
32872;SDS011;19224;52.462;16.898;2023-09-12T05:11:39;36.68;;;21.60;;
32872;SDS011;19224;52.462;16.898;2023-09-12T05:14:09;32.20;;;21.00;;
32872;SDS011;19224;52.462;16.898;2023-09-12T05:16:40;35.80;;;22.13;;
32872;SDS011;19224;52.462;16.898;2023-09-12T05:19:10;35.17;;;21.75;;
32872;SDS011;19224;52.462;16.898;2023-09-12T05:21:40;35.38;;;21.50;;
32872;SDS011;19224;52.462;16.898;2023-09-12T05:24:11;35.70;;;21.60;;
32872;SDS011;19224;52.462;16.898;2023-09-12T05:26:41;33.13;;;22.55;;
32872;SDS011;19224;52.462;16.898;2023-09-12T05:29:11;38.53;;;22.45;;
32872;SDS011;19224;52.462;16.898;2023-09-12T05:31:42;42.00;;;21.68;;
32872;SDS011;19224;52.462;16.898;2023-09-12T05:34:12;46.25;;;22.90;;
32872;SDS011;19224;52.462;16.898;2023-09-12T05:36:42;39.40;;;21.73;;
32872;SDS011;19224;52.462;16.898;2023-09-12T05:39:12;38.17;;;23.35;;
32872;SDS011;19224;52.462;16.898;2023-09-12T05:41:42;39.70;;;23.98;;
32872;SDS011;19224;52.462;16.898;2023-09-12T05:44:13;41.30;;;24.02;;
32872;SDS011;19224;52.462;16.898;2023-09-12T05:46:45;37.38;;;22.50;;
32872;SDS011;19224;52.462;16.898;2023-09-12T05:49:16;44.20;;;23.50;;
32872;SDS011;19224;52.462;16.898;2023-09-12T05:51:47;49.83;;;22.58;;
32872;SDS011;19224;52.462;16.898;2023-09-12T05:54:17;55.65;;;23.38;;
32872;SDS011;19224;52.462;16.898;2023-09-12T05:56:48;49.05;;;22.10;;
32872;SDS011;19224;52.462;16.898;2023-09-12T05:59:19;39.80;;;21.42;;
32872;SDS011;19224;52.462;16.898;2023-09-12T06:01:51;46.37;;;21.27;;
32872;SDS011;19224;52.462;16.898;2023-09-12T06:04:22;44.23;;;21.90;;
32872;SDS011;19224;52.462;16.898;2023-09-12T06:06:57;48.68;;;23.47;;
32872;SDS011;19224;52.462;16.898;2023-09-12T06:09:29;47.27;;;23.60;;
32872;SDS011;19224;52.462;16.898;2023-09-12T06:12:00;38.83;;;21.80;;
32872;SDS011;19224;52.462;16.898;2023-09-12T06:14:31;37.88;;;21.48;;
32872;SDS011;19224;52.462;16.898;2023-09-12T06:17:01;46.25;;;21.70;;
32872;SDS011;19224;52.462;16.898;2023-09-12T06:19:32;40.63;;;20.52;;
32872;SDS011;19224;52.462;16.898;2023-09-12T06:22:03;37.13;;;20.90;;
32872;SDS011;19224;52.462;16.898;2023-09-12T06:24:33;36.63;;;21.05;;
32872;SDS011;19224;52.462;16.898;2023-09-12T06:27:04;36.63;;;20.60;;
32872;SDS011;19224;52.462;16.898;2023-09-12T06:29:34;37.13;;;20.68;;
32872;SDS011;19224;52.462;16.898;2023-09-12T06:32:04;32.73;;;19.77;;
32872;SDS011;19224;52.462;16.898;2023-09-12T06:34:34;29.57;;;19.70;;
32872;SDS011;19224;52.462;16.898;2023-09-12T06:37:05;30.35;;;19.27;;
32872;SDS011;19224;52.462;16.898;2023-09-12T06:39:35;28.52;;;18.48;;
32872;SDS011;19224;52.462;16.898;2023-09-12T06:42:06;31.82;;;18.60;;
32872;SDS011;19224;52.462;16.898;2023-09-12T06:44:37;28.83;;;18.55;;
32872;SDS011;19224;52.462;16.898;2023-09-12T06:47:07;40.78;;;19.95;;
32872;SDS011;19224;52.462;16.898;2023-09-12T06:49:38;30.37;;;19.65;;
32872;SDS011;19224;52.462;16.898;2023-09-12T06:52:08;27.70;;;17.80;;
32872;SDS011;19224;52.462;16.898;2023-09-12T06:54:40;29.87;;;18.50;;
32872;SDS011;19224;52.462;16.898;2023-09-12T06:57:11;29.95;;;18.05;;
32872;SDS011;19224;52.462;16.898;2023-09-12T06:59:41;31.80;;;18.37;;
32872;SDS011;19224;52.462;16.898;2023-09-12T07:02:11;27.75;;;16.67;;
32872;SDS011;19224;52.462;16.898;2023-09-12T07:04:42;33.48;;;18.07;;
32872;SDS011;19224;52.462;16.898;2023-09-12T07:07:12;37.17;;;18.23;;
32872;SDS011;19224;52.462;16.898;2023-09-12T07:09:43;23.65;;;16.17;;
32872;SDS011;19224;52.462;16.898;2023-09-12T07:12:13;30.23;;;17.85;;
32872;SDS011;19224;52.462;16.898;2023-09-12T07:14:43;24.05;;;17.62;;
32872;SDS011;19224;52.462;16.898;2023-09-12T07:17:14;32.00;;;17.67;;
32872;SDS011;19224;52.462;16.898;2023-09-12T07:19:45;27.80;;;17.30;;
32872;SDS011;19224;52.462;16.898;2023-09-12T07:22:15;26.70;;;16.77;;
32872;SDS011;19224;52.462;16.898;2023-09-12T07:24:46;32.08;;;16.27;;
32872;SDS011;19224;52.462;16.898;2023-09-12T07:27:16;27.95;;;15.95;;
32872;SDS011;19224;52.462;16.898;2023-09-12T07:29:46;27.67;;;15.45;;
32872;SDS011;19224;52.462;16.898;2023-09-12T07:32:17;32.40;;;16.52;;
32872;SDS011;19224;52.462;16.898;2023-09-12T07:34:48;27.70;;;16.15;;
32872;SDS011;19224;52.462;16.898;2023-09-12T07:37:19;23.52;;;16.15;;
32872;SDS011;19224;52.462;16.898;2023-09-12T07:39:49;25.40;;;14.87;;
32872;SDS011;19224;52.462;16.898;2023-09-12T07:42:22;24.50;;;14.90;;
32872;SDS011;19224;52.462;16.898;2023-09-12T07:44:54;24.85;;;15.72;;
32872;SDS011;19224;52.462;16.898;2023-09-12T07:47:24;27.37;;;15.72;;
32872;SDS011;19224;52.462;16.898;2023-09-12T07:49:55;25.72;;;14.30;;
32872;SDS011;19224;52.462;16.898;2023-09-12T07:52:27;31.57;;;15.25;;
32872;SDS011;19224;52.462;16.898;2023-09-12T07:54:59;30.32;;;14.70;;
32872;SDS011;19224;52.462;16.898;2023-09-12T07:57:31;30.95;;;15.38;;
32872;SDS011;19224;52.462;16.898;2023-09-12T08:00:03;32.58;;;14.68;;
32872;SDS011;19224;52.462;16.898;2023-09-12T08:02:36;30.37;;;14.90;;
32872;SDS011;19224;52.462;16.898;2023-09-12T08:05:07;31.10;;;15.15;;
32872;SDS011;19224;52.462;16.898;2023-09-12T08:07:38;28.73;;;14.33;;
32872;SDS011;19224;52.462;16.898;2023-09-12T08:10:08;23.02;;;14.25;;
32872;SDS011;19224;52.462;16.898;2023-09-12T08:12:39;22.62;;;14.03;;
32872;SDS011;19224;52.462;16.898;2023-09-12T08:15:09;26.37;;;13.15;;
32872;SDS011;19224;52.462;16.898;2023-09-12T08:17:40;27.32;;;13.62;;
32872;SDS011;19224;52.462;16.898;2023-09-12T08:20:10;21.93;;;13.13;;
32872;SDS011;19224;52.462;16.898;2023-09-12T08:22:41;26.40;;;12.85;;
32872;SDS011;19224;52.462;16.898;2023-09-12T08:25:11;22.93;;;12.58;;
32872;SDS011;19224;52.462;16.898;2023-09-12T08:27:42;24.27;;;11.85;;
32872;SDS011;19224;52.462;16.898;2023-09-12T08:30:13;20.52;;;11.97;;
32872;SDS011;19224;52.462;16.898;2023-09-12T08:32:45;21.77;;;12.28;;
32872;SDS011;19224;52.462;16.898;2023-09-12T08:35:15;19.92;;;11.80;;
32872;SDS011;19224;52.462;16.898;2023-09-12T08:37:45;22.73;;;11.80;;
32872;SDS011;19224;52.462;16.898;2023-09-12T08:40:16;19.98;;;10.58;;
32872;SDS011;19224;52.462;16.898;2023-09-12T08:42:46;12.95;;;9.95;;
32872;SDS011;19224;52.462;16.898;2023-09-12T08:45:19;23.18;;;10.85;;
32872;SDS011;19224;52.462;16.898;2023-09-12T08:47:50;18.17;;;10.60;;
32872;SDS011;19224;52.462;16.898;2023-09-12T08:50:24;18.07;;;11.12;;
32872;SDS011;19224;52.462;16.898;2023-09-12T08:52:56;17.42;;;11.00;;
32872;SDS011;19224;52.462;16.898;2023-09-12T08:55:27;24.10;;;11.80;;
32872;SDS011;19224;52.462;16.898;2023-09-12T08:57:57;31.48;;;12.23;;
32872;SDS011;19224;52.462;16.898;2023-09-12T09:00:28;21.15;;;12.20;;
32872;SDS011;19224;52.462;16.898;2023-09-12T09:02:59;13.90;;;10.98;;
32872;SDS011;19224;52.462;16.898;2023-09-12T09:05:30;19.57;;;11.70;;
32872;SDS011;19224;52.462;16.898;2023-09-12T09:08:03;19.17;;;11.95;;
32872;SDS011;19224;52.462;16.898;2023-09-12T09:10:34;21.40;;;10.53;;
32872;SDS011;19224;52.462;16.898;2023-09-12T09:13:05;19.57;;;10.90;;
32872;SDS011;19224;52.462;16.898;2023-09-12T09:15:37;14.53;;;9.93;;
32872;SDS011;19224;52.462;16.898;2023-09-12T09:18:10;25.17;;;11.10;;
32872;SDS011;19224;52.462;16.898;2023-09-12T09:20:41;20.23;;;11.00;;
32872;SDS011;19224;52.462;16.898;2023-09-12T09:23:13;20.00;;;10.90;;
32872;SDS011;19224;52.462;16.898;2023-09-12T09:25:45;22.17;;;11.25;;
32872;SDS011;19224;52.462;16.898;2023-09-12T09:28:19;23.80;;;10.78;;
32872;SDS011;19224;52.462;16.898;2023-09-12T09:30:52;15.25;;;10.00;;
32872;SDS011;19224;52.462;16.898;2023-09-12T09:33:22;19.65;;;10.48;;
32872;SDS011;19224;52.462;16.898;2023-09-12T09:36:01;25.72;;;11.50;;
32872;SDS011;19224;52.462;16.898;2023-09-12T09:38:34;18.57;;;9.85;;
32872;SDS011;19224;52.462;16.898;2023-09-12T09:41:08;15.50;;;10.45;;
32872;SDS011;19224;52.462;16.898;2023-09-12T09:43:38;19.48;;;10.00;;
32872;SDS011;19224;52.462;16.898;2023-09-12T09:46:09;18.50;;;10.10;;
32872;SDS011;19224;52.462;16.898;2023-09-12T09:48:49;25.32;;;10.32;;
32872;SDS011;19224;52.462;16.898;2023-09-12T09:51:20;14.33;;;10.20;;
32872;SDS011;19224;52.462;16.898;2023-09-12T09:53:53;18.15;;;9.70;;
32872;SDS011;19224;52.462;16.898;2023-09-12T09:56:25;18.50;;;9.88;;
32872;SDS011;19224;52.462;16.898;2023-09-12T09:58:56;15.45;;;10.18;;
32872;SDS011;19224;52.462;16.898;2023-09-12T10:01:27;18.40;;;9.78;;
32872;SDS011;19224;52.462;16.898;2023-09-12T10:04:00;21.42;;;9.88;;
32872;SDS011;19224;52.462;16.898;2023-09-12T10:06:31;15.95;;;9.53;;
32872;SDS011;19224;52.462;16.898;2023-09-12T10:09:08;15.60;;;9.63;;
32872;SDS011;19224;52.462;16.898;2023-09-12T10:11:42;17.65;;;9.23;;
32872;SDS011;19224;52.462;16.898;2023-09-12T10:14:15;12.15;;;9.35;;
32872;SDS011;19224;52.462;16.898;2023-09-12T10:16:49;17.42;;;9.23;;
32872;SDS011;19224;52.462;16.898;2023-09-12T10:19:24;19.67;;;9.93;;
32872;SDS011;19224;52.462;16.898;2023-09-12T10:22:12;13.72;;;9.35;;
32872;SDS011;19224;52.462;16.898;2023-09-12T10:24:56;14.33;;;8.88;;
32872;SDS011;19224;52.462;16.898;2023-09-12T10:27:28;14.40;;;9.38;;
32872;SDS011;19224;52.462;16.898;2023-09-12T10:30:01;12.50;;;7.72;;
32872;SDS011;19224;52.462;16.898;2023-09-12T10:32:32;10.23;;;6.22;;
32872;SDS011;19224;52.462;16.898;2023-09-12T10:35:04;9.63;;;6.65;;
32872;SDS011;19224;52.462;16.898;2023-09-12T10:37:36;8.30;;;6.78;;
32872;SDS011;19224;52.462;16.898;2023-09-12T10:40:10;9.53;;;7.17;;
32872;SDS011;19224;52.462;16.898;2023-09-12T10:42:42;9.68;;;6.55;;
32872;SDS011;19224;52.462;16.898;2023-09-12T10:45:13;9.95;;;7.22;;
32872;SDS011;19224;52.462;16.898;2023-09-12T10:47:44;13.32;;;7.50;;
32872;SDS011;19224;52.462;16.898;2023-09-12T10:50:14;11.25;;;7.90;;
32872;SDS011;19224;52.462;16.898;2023-09-12T10:52:45;10.75;;;7.58;;
32872;SDS011;19224;52.462;16.898;2023-09-12T10:55:16;12.98;;;7.67;;
32872;SDS011;19224;52.462;16.898;2023-09-12T10:58:02;12.23;;;7.67;;
32872;SDS011;19224;52.462;16.898;2023-09-12T11:00:34;9.48;;;8.13;;
32872;SDS011;19224;52.462;16.898;2023-09-12T11:06:01;10.75;;;7.28;;
32872;SDS011;19224;52.462;16.898;2023-09-12T11:08:35;11.45;;;7.55;;
32872;SDS011;19224;52.462;16.898;2023-09-12T11:11:17;14.30;;;7.42;;
32872;SDS011;19224;52.462;16.898;2023-09-12T11:14:10;12.35;;;7.95;;
32872;SDS011;19224;52.462;16.898;2023-09-12T11:16:33;11.20;;;7.78;;
32872;SDS011;19224;52.462;16.898;2023-09-12T11:21:47;14.18;;;8.10;;
32872;SDS011;19224;52.462;16.898;2023-09-12T11:24:24;10.75;;;7.92;;
32872;SDS011;19224;52.462;16.898;2023-09-12T11:26:58;14.30;;;7.70;;
32872;SDS011;19224;52.462;16.898;2023-09-12T11:29:35;14.03;;;7.72;;
32872;SDS011;19224;52.462;16.898;2023-09-12T11:32:08;14.33;;;7.50;;
32872;SDS011;19224;52.462;16.898;2023-09-12T11:34:43;18.23;;;8.15;;
32872;SDS011;19224;52.462;16.898;2023-09-12T11:37:22;10.50;;;7.65;;
32872;SDS011;19224;52.462;16.898;2023-09-12T11:39:57;16.05;;;7.37;;
32872;SDS011;19224;52.462;16.898;2023-09-12T11:42:27;10.60;;;7.30;;
32872;SDS011;19224;52.462;16.898;2023-09-12T11:44:59;17.12;;;7.65;;
32872;SDS011;19224;52.462;16.898;2023-09-12T11:47:30;14.65;;;7.50;;
32872;SDS011;19224;52.462;16.898;2023-09-12T11:50:01;12.25;;;7.08;;
32872;SDS011;19224;52.462;16.898;2023-09-12T11:52:35;11.22;;;7.33;;
32872;SDS011;19224;52.462;16.898;2023-09-12T11:55:06;9.08;;;7.65;;
32872;SDS011;19224;52.462;16.898;2023-09-12T11:57:36;17.50;;;7.92;;
32872;SDS011;19224;52.462;16.898;2023-09-12T12:00:09;12.88;;;6.92;;
32872;SDS011;19224;52.462;16.898;2023-09-12T12:02:43;14.10;;;7.60;;
32872;SDS011;19224;52.462;16.898;2023-09-12T12:05:14;10.55;;;6.95;;
32872;SDS011;19224;52.462;16.898;2023-09-12T12:07:44;10.28;;;7.35;;
32872;SDS011;19224;52.462;16.898;2023-09-12T12:10:16;13.00;;;7.37;;
32872;SDS011;19224;52.462;16.898;2023-09-12T12:12:47;12.18;;;7.15;;
32872;SDS011;19224;52.462;16.898;2023-09-12T12:15:19;10.58;;;7.00;;
32872;SDS011;19224;52.462;16.898;2023-09-12T12:17:53;10.05;;;6.55;;
32872;SDS011;19224;52.462;16.898;2023-09-12T12:20:24;8.85;;;6.85;;
32872;SDS011;19224;52.462;16.898;2023-09-12T12:22:56;12.13;;;7.12;;
32872;SDS011;19224;52.462;16.898;2023-09-12T12:25:31;12.75;;;7.35;;
32872;SDS011;19224;52.462;16.898;2023-09-12T12:28:03;11.73;;;7.50;;
32872;SDS011;19224;52.462;16.898;2023-09-12T12:30:34;11.75;;;6.95;;
32872;SDS011;19224;52.462;16.898;2023-09-12T12:33:08;9.80;;;6.00;;
32872;SDS011;19224;52.462;16.898;2023-09-12T12:35:39;8.50;;;6.97;;
32872;SDS011;19224;52.462;16.898;2023-09-12T12:38:10;8.45;;;6.60;;
32872;SDS011;19224;52.462;16.898;2023-09-12T12:40:42;8.93;;;6.35;;
32872;SDS011;19224;52.462;16.898;2023-09-12T12:43:16;10.78;;;6.75;;
32872;SDS011;19224;52.462;16.898;2023-09-12T12:45:53;14.83;;;6.40;;
32872;SDS011;19224;52.462;16.898;2023-09-12T12:48:31;11.43;;;7.12;;
32872;SDS011;19224;52.462;16.898;2023-09-12T12:51:13;8.70;;;6.42;;
32872;SDS011;19224;52.462;16.898;2023-09-12T12:53:47;10.43;;;7.17;;
32872;SDS011;19224;52.462;16.898;2023-09-12T12:56:29;11.38;;;6.90;;
32872;SDS011;19224;52.462;16.898;2023-09-12T12:59:00;10.78;;;7.90;;
32872;SDS011;19224;52.462;16.898;2023-09-12T13:01:34;10.88;;;8.30;;
32872;SDS011;19224;52.462;16.898;2023-09-12T13:04:07;10.88;;;6.50;;
32872;SDS011;19224;52.462;16.898;2023-09-12T13:06:38;12.35;;;6.78;;
32872;SDS011;19224;52.462;16.898;2023-09-12T13:09:09;9.25;;;6.80;;
32872;SDS011;19224;52.462;16.898;2023-09-12T13:11:40;9.73;;;6.78;;
32872;SDS011;19224;52.462;16.898;2023-09-12T13:14:11;9.30;;;6.62;;
32872;SDS011;19224;52.462;16.898;2023-09-12T13:16:41;10.53;;;6.55;;
32872;SDS011;19224;52.462;16.898;2023-09-12T13:19:12;10.55;;;7.08;;
32872;SDS011;19224;52.462;16.898;2023-09-12T13:21:42;10.13;;;6.90;;
32872;SDS011;19224;52.462;16.898;2023-09-12T13:24:12;10.15;;;6.83;;
32872;SDS011;19224;52.462;16.898;2023-09-12T13:26:42;13.15;;;6.97;;
32872;SDS011;19224;52.462;16.898;2023-09-12T13:29:13;10.78;;;6.70;;
32872;SDS011;19224;52.462;16.898;2023-09-12T13:31:44;9.00;;;6.60;;
32872;SDS011;19224;52.462;16.898;2023-09-12T13:34:14;11.93;;;7.10;;
32872;SDS011;19224;52.462;16.898;2023-09-12T13:36:45;13.40;;;7.00;;
32872;SDS011;19224;52.462;16.898;2023-09-12T13:39:16;11.50;;;6.62;;
32872;SDS011;19224;52.462;16.898;2023-09-12T13:41:47;10.45;;;6.30;;
32872;SDS011;19224;52.462;16.898;2023-09-12T13:44:17;15.43;;;9.28;;
32872;SDS011;19224;52.462;16.898;2023-09-12T13:46:47;17.12;;;8.45;;
32872;SDS011;19224;52.462;16.898;2023-09-12T13:49:18;16.62;;;6.80;;
32872;SDS011;19224;52.462;16.898;2023-09-12T13:51:48;13.08;;;6.80;;
32872;SDS011;19224;52.462;16.898;2023-09-12T13:54:19;9.75;;;6.45;;
32872;SDS011;19224;52.462;16.898;2023-09-12T13:56:49;11.68;;;7.33;;
32872;SDS011;19224;52.462;16.898;2023-09-12T13:59:19;12.55;;;7.00;;
32872;SDS011;19224;52.462;16.898;2023-09-12T14:01:50;10.63;;;6.58;;
32872;SDS011;19224;52.462;16.898;2023-09-12T14:04:20;9.80;;;7.08;;
32872;SDS011;19224;52.462;16.898;2023-09-12T14:06:50;13.35;;;6.95;;
32872;SDS011;19224;52.462;16.898;2023-09-12T14:09:20;10.82;;;7.35;;
32872;SDS011;19224;52.462;16.898;2023-09-12T14:11:51;11.15;;;7.53;;
32872;SDS011;19224;52.462;16.898;2023-09-12T14:14:21;8.53;;;6.37;;
32872;SDS011;19224;52.462;16.898;2023-09-12T14:16:51;10.10;;;6.60;;
32872;SDS011;19224;52.462;16.898;2023-09-12T14:19:22;11.40;;;7.10;;
32872;SDS011;19224;52.462;16.898;2023-09-12T14:21:53;9.88;;;6.60;;
32872;SDS011;19224;52.462;16.898;2023-09-12T14:24:23;11.78;;;6.70;;
32872;SDS011;19224;52.462;16.898;2023-09-12T14:26:53;14.10;;;6.90;;
32872;SDS011;19224;52.462;16.898;2023-09-12T14:29:23;12.58;;;6.87;;
32872;SDS011;19224;52.462;16.898;2023-09-12T14:31:56;11.73;;;7.25;;
32872;SDS011;19224;52.462;16.898;2023-09-12T14:34:26;12.07;;;6.95;;
32872;SDS011;19224;52.462;16.898;2023-09-12T14:36:58;12.47;;;7.00;;
32872;SDS011;19224;52.462;16.898;2023-09-12T14:39:29;20.17;;;9.25;;
32872;SDS011;19224;52.462;16.898;2023-09-12T14:41:59;17.60;;;7.65;;
32872;SDS011;19224;52.462;16.898;2023-09-12T14:44:31;9.48;;;6.65;;
32872;SDS011;19224;52.462;16.898;2023-09-12T14:47:01;7.70;;;6.30;;